Baiji, China

61°F / 16°C
Partly Cloudy
Humidity: 94%
Dew Point: 59°F / 15°C
Wind: NE at 7 mph / 11 km/h
Pressure: 29.98 in / 1015 hPa (Steady)
Visibility: 2.5 miles / 4.0 kilometers
Clouds: (FEW) : 1000 ft / 304 m
Yesterday's Maximum: 75°F / 24°C
Yesterday's Minimum: 54°F / 12°C approx.
Yesterday's Heating Degree Days: 1 approx.
UV: 0 out of 16
Sunrise:7:13 AM CST
Sunset:6:45 PM CST
Moon Rise:8:37 PM CST
Moon Set:8:29 AM CST
Moon Phase Full Moon
NOAA Weather Radio
No local feed.
METAR ZGNN 201900Z 05003MPS 4000 BR FEW010 16/15 Q1015 NOSIG
As of: 3:00 AM CST on February 21, 2019
Observed at: Nanning, China

View Station's History

Local Satellite

Current Satellite Forecast
Region Default Local
No Yes

View Full Screen WunderMap

Forecast

Current Satellite Forecast

Features

Weather Apps

WunderRadio

Weather Underground Apps
Check out our wide variety of mobile and setup applications.

Weather Underground Applications

Top of Page

© Copyright 2019
The Weather Company, LLC